Time;durP1;ratioP1;P1;durP2;ratioP2;P2;SDS_P1;SDS_P2;PMS_P1;PMS_P2;Temp;Humidity;BMP_temperature;BMP_pressure;BME280_temperature;BME280_humidity;BME280_pressure;Samples;Min_cycle;Max_cycle;Signal;HPM_P1;HPM_P2
2022/05/15 00:01:00;;;;;;;7.93;6.40;;;;;;;;;;5096823;28;20521;-71
2022/05/15 00:03:27;;;;;;;7.77;6.97;;;;;;;;;;5096531;28;20486;-71
2022/05/15 00:05:55;;;;;;;6.93;5.80;;;;;;;;;;5096802;28;20450;-70
2022/05/15 00:08:22;;;;;;;10.63;6.00;;;;;;;;;;5096564;28;20457;-70
2022/05/15 00:10:49;;;;;;;9.17;5.90;;;;;;;;;;5096590;28;20473;-70
2022/05/15 00:13:19;;;;;;;6.77;5.30;;;;;;;;;;5096608;28;20446;-70
2022/05/15 00:15:46;;;;;;;5.63;5.00;;;;;;;;;;5096600;28;20554;-70
2022/05/15 00:18:13;;;;;;;5.77;5.27;;;;;;;;;;5096828;28;20438;-71
2022/05/15 00:20:41;;;;;;;6.80;6.10;;;;;;;;;;5096512;28;20485;-70
2022/05/15 00:23:08;;;;;;;6.63;5.80;;;;;;;;;;5096367;28;21032;-71
2022/05/15 00:25:35;;;;;;;8.17;6.03;;;;;;;;;;5096145;28;20461;-71
2022/05/15 00:28:02;;;;;;;12.97;5.80;;;;;;;;;;5096428;28;20450;-71
2022/05/15 00:30:31;;;;;;;7.67;6.03;;;;;;;;;;5096316;28;20470;-70
2022/05/15 00:32:58;;;;;;;6.80;5.27;;;;;;;;;;5096356;28;20455;-70
2022/05/15 00:35:26;;;;;;;7.27;6.33;;;;;;;;;;5096428;28;20450;-71
2022/05/15 00:37:53;;;;;;;7.10;5.73;;;;;;;;;;5095905;28;20457;-70
2022/05/15 00:40:21;;;;;;;7.60;6.30;;;;;;;;;;5096096;28;20836;-70
2022/05/15 00:42:48;;;;;;;8.50;5.33;;;;;;;;;;5096018;28;20896;-70
2022/05/15 00:45:16;;;;;;;8.53;6.63;;;;;;;;;;5096021;28;20450;-70
2022/05/15 00:47:44;;;;;;;7.47;6.70;;;;;;;;;;5096005;28;20458;-70
2022/05/15 00:50:13;;;;;;;14.03;7.70;;;;;;;;;;5095891;28;20540;-70
2022/05/15 00:52:43;;;;;;;7.63;6.13;;;;;;;;;;5095965;28;20955;-70
2022/05/15 00:55:14;;;;;;;9.40;6.93;;;;;;;;;;5095572;28;20447;-70
2022/05/15 00:57:44;;;;;;;10.80;7.50;;;;;;;;;;5095582;28;20435;-70
2022/05/15 01:00:13;;;;;;;11.33;6.93;;;;;;;;;;5095639;28;20475;-70
2022/05/15 01:02:42;;;;;;;8.20;7.07;;;;;;;;;;5095632;28;20822;-70
2022/05/15 01:05:12;;;;;;;9.60;6.43;;;;;;;;;;5095656;28;20458;-70
2022/05/15 01:07:39;;;;;;;11.80;7.33;;;;;;;;;;5095662;28;20824;-70
2022/05/15 01:10:07;;;;;;;10.07;7.23;;;;;;;;;;5095553;28;20478;-70
2022/05/15 01:12:35;;;;;;;7.27;5.97;;;;;;;;;;5095659;28;20939;-70
2022/05/15 01:15:04;;;;;;;12.43;7.20;;;;;;;;;;5095547;28;20973;-70
2022/05/15 01:17:31;;;;;;;7.50;6.27;;;;;;;;;;5095454;28;20504;-70
2022/05/15 01:20:02;;;;;;;9.37;7.33;;;;;;;;;;5095455;28;20471;-70
2022/05/15 01:22:31;;;;;;;12.50;7.60;;;;;;;;;;5095086;28;20427;-70
2022/05/15 01:24:58;;;;;;;9.20;6.40;;;;;;;;;;5095447;28;20470;-70
2022/05/15 01:27:25;;;;;;;6.60;5.97;;;;;;;;;;5095374;28;20450;-70
2022/05/15 01:29:52;;;;;;;9.30;6.83;;;;;;;;;;5095147;28;20471;-70
2022/05/15 01:32:19;;;;;;;15.73;7.33;;;;;;;;;;5094973;28;20465;-70
2022/05/15 01:34:46;;;;;;;13.53;9.17;;;;;;;;;;5095174;28;20451;-70
2022/05/15 01:37:13;;;;;;;7.60;6.57;;;;;;;;;;5094989;28;20455;-70
2022/05/15 01:39:42;;;;;;;12.00;6.40;;;;;;;;;;5094936;28;20545;-70
2022/05/15 01:42:09;;;;;;;10.67;6.70;;;;;;;;;;5094997;28;20455;-70
2022/05/15 01:44:36;;;;;;;11.10;7.47;;;;;;;;;;5094474;28;20486;-70
2022/05/15 01:47:04;;;;;;;9.00;6.73;;;;;;;;;;5094818;28;20813;-70
2022/05/15 01:49:31;;;;;;;8.43;6.67;;;;;;;;;;5094759;28;20477;-70
2022/05/15 01:51:58;;;;;;;7.40;6.70;;;;;;;;;;5094683;28;20965;-70
2022/05/15 01:54:25;;;;;;;11.80;9.87;;;;;;;;;;5094731;28;20789;-70
2022/05/15 01:56:53;;;;;;;11.07;7.77;;;;;;;;;;5094699;28;20473;-70
2022/05/15 01:59:20;;;;;;;7.70;6.67;;;;;;;;;;5094268;28;20478;-70
2022/05/15 02:01:48;;;;;;;11.40;7.67;;;;;;;;;;5094504;28;20830;-70
2022/05/15 02:04:15;;;;;;;7.07;6.37;;;;;;;;;;5094509;28;20489;-70
2022/05/15 02:06:42;;;;;;;12.40;7.40;;;;;;;;;;5094180;28;20462;-70
2022/05/15 02:09:10;;;;;;;9.10;8.07;;;;;;;;;;5093585;28;20794;-70
2022/05/15 02:11:38;;;;;;;8.90;7.20;;;;;;;;;;5094430;28;20861;-70
2022/05/15 02:14:06;;;;;;;8.87;6.30;;;;;;;;;;5094088;28;20504;-70
2022/05/15 02:16:33;;;;;;;7.17;6.37;;;;;;;;;;5094430;28;20936;-70
2022/05/15 02:19:01;;;;;;;8.00;7.20;;;;;;;;;;5094504;28;20924;-71
2022/05/15 02:21:28;;;;;;;7.93;5.87;;;;;;;;;;5094323;28;20928;-71
2022/05/15 02:23:55;;;;;;;6.70;6.00;;;;;;;;;;5093989;28;20490;-70
2022/05/15 02:26:22;;;;;;;6.80;6.10;;;;;;;;;;5094254;28;20470;-70
2022/05/15 02:28:49;;;;;;;9.77;6.27;;;;;;;;;;5094229;28;20461;-70
2022/05/15 02:31:18;;;;;;;9.93;7.03;;;;;;;;;;5094051;28;20442;-70
2022/05/15 02:33:45;;;;;;;9.73;6.50;;;;;;;;;;5093761;28;20455;-70
2022/05/15 02:36:12;;;;;;;11.70;7.20;;;;;;;;;;5093953;28;20447;-70
2022/05/15 02:38:39;;;;;;;10.40;7.60;;;;;;;;;;5093820;28;20451;-70
2022/05/15 02:41:06;;;;;;;25.87;15.20;;;;;;;;;;5093765;28;20787;-70
2022/05/15 02:43:33;;;;;;;16.03;8.83;;;;;;;;;;5093494;28;20485;-70
2022/05/15 02:46:01;;;;;;;8.83;7.93;;;;;;;;;;5093715;28;20986;-70
2022/05/15 02:51:14;;;;;;;9.90;8.13;;;;;;;;;;5093351;28;20442;-70
2022/05/15 02:53:43;;;;;;;11.83;7.97;;;;;;;;;;5093695;28;20446;-70
2022/05/15 02:56:11;;;;;;;8.70;7.90;;;;;;;;;;5093418;28;20458;-70
2022/05/15 02:58:38;;;;;;;9.60;7.20;;;;;;;;;;5093914;28;20554;-70
2022/05/15 03:01:05;;;;;;;10.40;7.00;;;;;;;;;;5093509;28;20482;-70
2022/05/15 03:03:34;;;;;;;9.83;8.37;;;;;;;;;;5093530;28;20482;-70
2022/05/15 03:06:01;;;;;;;14.10;8.57;;;;;;;;;;5093276;28;20461;-70
2022/05/15 03:08:28;;;;;;;9.37;7.00;;;;;;;;;;5093497;28;20469;-70
2022/05/15 03:10:55;;;;;;;9.77;8.63;;;;;;;;;;5093274;28;20478;-70
2022/05/15 03:13:22;;;;;;;8.97;8.07;;;;;;;;;;5093402;28;20469;-70
2022/05/15 03:15:49;;;;;;;9.30;7.40;;;;;;;;;;5093434;28;20450;-70
2022/05/15 03:18:16;;;;;;;7.13;6.40;;;;;;;;;;5093049;28;20505;-70
2022/05/15 03:20:45;;;;;;;12.93;7.40;;;;;;;;;;5092810;28;20470;-70
2022/05/15 03:23:13;;;;;;;11.10;7.23;;;;;;;;;;5093075;28;20466;-70
2022/05/15 03:25:41;;;;;;;10.73;7.00;;;;;;;;;;5093245;28;20533;-70
2022/05/15 03:28:10;;;;;;;9.57;7.40;;;;;;;;;;5093225;28;20488;-70
2022/05/15 03:30:37;;;;;;;10.60;7.63;;;;;;;;;;5093134;28;20509;-71
2022/05/15 03:33:04;;;;;;;9.30;8.30;;;;;;;;;;5092931;28;20442;-72
2022/05/15 03:35:32;;;;;;;13.23;8.83;;;;;;;;;;5093168;28;20447;-72
2022/05/15 03:38:01;;;;;;;9.40;7.20;;;;;;;;;;5093023;28;20512;-72
2022/05/15 03:40:28;;;;;;;9.63;8.43;;;;;;;;;;5092906;28;20482;-72
2022/05/15 03:42:55;;;;;;;12.13;6.53;;;;;;;;;;5092979;28;20446;-73
2022/05/15 03:45:22;;;;;;;10.80;8.17;;;;;;;;;;5093162;28;20991;-72
2022/05/15 03:47:52;;;;;;;14.83;8.23;;;;;;;;;;5093551;28;20446;-72
2022/05/15 03:50:20;;;;;;;9.20;7.77;;;;;;;;;;5092807;28;20478;-72
2022/05/15 03:52:47;;;;;;;12.83;8.07;;;;;;;;;;5093199;28;20467;-72
2022/05/15 03:55:15;;;;;;;8.33;7.10;;;;;;;;;;5093155;28;20442;-73
2022/05/15 03:57:42;;;;;;;11.90;7.77;;;;;;;;;;5093077;28;20468;-72
2022/05/15 04:00:11;;;;;;;15.67;7.87;;;;;;;;;;5093331;28;20477;-73
2022/05/15 04:02:38;;;;;;;8.37;7.10;;;;;;;;;;5093087;28;20477;-73
2022/05/15 04:05:06;;;;;;;12.23;8.90;;;;;;;;;;5092655;28;20483;-72
2022/05/15 04:07:33;;;;;;;11.57;8.20;;;;;;;;;;5092939;28;20458;-73
2022/05/15 04:10:00;;;;;;;10.47;8.27;;;;;;;;;;5092775;28;21012;-73
2022/05/15 04:12:29;;;;;;;10.97;8.97;;;;;;;;;;5093079;28;20974;-73
2022/05/15 04:14:56;;;;;;;11.10;8.60;;;;;;;;;;5092810;28;20454;-73
2022/05/15 04:17:23;;;;;;;10.37;8.00;;;;;;;;;;5092534;28;20457;-73
2022/05/15 04:19:50;;;;;;;10.37;8.40;;;;;;;;;;5092359;28;20470;-73
2022/05/15 04:22:17;;;;;;;9.67;7.03;;;;;;;;;;5092536;28;20451;-73
2022/05/15 04:24:44;;;;;;;9.50;7.17;;;;;;;;;;5092480;28;20490;-73
2022/05/15 04:27:11;;;;;;;9.13;6.30;;;;;;;;;;5092940;28;20935;-75
2022/05/15 04:29:40;;;;;;;7.03;6.33;;;;;;;;;;5092640;28;20478;-75
2022/05/15 04:32:07;;;;;;;10.83;6.27;;;;;;;;;;5094724;28;20446;-75
2022/05/15 04:34:34;;;;;;;6.30;5.70;;;;;;;;;;5096425;28;20936;-76
2022/05/15 04:37:01;;;;;;;6.50;5.40;;;;;;;;;;5096365;28;20868;-76
2022/05/15 04:39:32;;;;;;;8.07;5.47;;;;;;;;;;5096128;28;20474;-75
2022/05/15 04:42:00;;;;;;;5.80;5.13;;;;;;;;;;5096104;28;20435;-76
2022/05/15 04:44:27;;;;;;;10.63;4.93;;;;;;;;;;5096114;28;20978;-76
2022/05/15 04:46:55;;;;;;;6.90;5.83;;;;;;;;;;5096238;28;20446;-75
2022/05/15 04:49:22;;;;;;;5.13;4.73;;;;;;;;;;5096132;28;20467;-76
2022/05/15 04:51:49;;;;;;;5.53;4.97;;;;;;;;;;5096088;28;20897;-76
2022/05/15 04:54:16;;;;;;;8.97;5.60;;;;;;;;;;5096042;28;20443;-76
2022/05/15 04:56:44;;;;;;;6.20;5.60;;;;;;;;;;5096014;28;20503;-74
2022/05/15 04:59:11;;;;;;;6.70;4.67;;;;;;;;;;5095917;28;20847;-74
2022/05/15 05:01:38;;;;;;;6.43;4.03;;;;;;;;;;5095554;28;20451;-74
2022/05/15 05:04:07;;;;;;;6.27;4.80;;;;;;;;;;5095766;28;20478;-74
2022/05/15 05:06:34;;;;;;;5.07;4.67;;;;;;;;;;5095709;28;20455;-74
2022/05/15 05:09:01;;;;;;;6.47;5.87;;;;;;;;;;5095581;28;20462;-74
2022/05/15 05:11:28;;;;;;;6.07;4.37;;;;;;;;;;5095655;28;20461;-74
2022/05/15 05:13:55;;;;;;;5.83;3.77;;;;;;;;;;5095459;28;20458;-74
2022/05/15 05:16:22;;;;;;;4.97;3.80;;;;;;;;;;5095454;28;20443;-74
2022/05/15 05:18:49;;;;;;;4.87;4.43;;;;;;;;;;5095820;28;20818;-74
2022/05/15 05:21:18;;;;;;;9.70;4.30;;;;;;;;;;5095048;28;20450;-74
2022/05/15 05:23:45;;;;;;;7.90;4.50;;;;;;;;;;5095070;28;20462;-74
2022/05/15 05:26:12;;;;;;;4.73;4.30;;;;;;;;;;5095325;28;20459;-74
2022/05/15 05:28:39;;;;;;;8.50;4.73;;;;;;;;;;5095168;28;20458;-74
2022/05/15 05:31:06;;;;;;;5.03;4.03;;;;;;;;;;5095163;28;20995;-74
2022/05/15 05:33:34;;;;;;;4.43;4.03;;;;;;;;;;5095131;28;20458;-74
2022/05/15 05:36:01;;;;;;;6.33;4.57;;;;;;;;;;5095046;28;20458;-74
2022/05/15 05:38:29;;;;;;;3.83;3.53;;;;;;;;;;5095128;28;20461;-74
2022/05/15 05:40:57;;;;;;;5.27;4.77;;;;;;;;;;5094645;28;20471;-74
2022/05/15 05:43:24;;;;;;;7.40;4.90;;;;;;;;;;5093935;28;20931;-74
2022/05/15 05:45:51;;;;;;;5.40;4.50;;;;;;;;;;5094908;28;20486;-74
2022/05/15 05:48:18;;;;;;;4.97;3.93;;;;;;;;;;5094894;28;20483;-74
2022/05/15 05:50:45;;;;;;;5.40;4.90;;;;;;;;;;5094771;28;20482;-74
2022/05/15 05:53:12;;;;;;;7.20;6.17;;;;;;;;;;5094477;28;20451;-74
2022/05/15 05:55:40;;;;;;;13.57;8.17;;;;;;;;;;5094713;28;20449;-74
2022/05/15 05:58:07;;;;;;;12.47;8.47;;;;;;;;;;5094394;28;20461;-74
2022/05/15 06:00:37;;;;;;;8.37;7.00;;;;;;;;;;5094893;28;21001;-74
2022/05/15 06:05:50;;;;;;;5.40;4.43;;;;;;;;;;5094292;28;20539;-74
2022/05/15 06:08:17;;;;;;;5.80;3.27;;;;;;;;;;5094506;28;20939;-74
2022/05/15 06:10:47;;;;;;;4.93;3.73;;;;;;;;;;5094341;28;20506;-74
2022/05/15 06:13:14;;;;;;;5.97;3.73;;;;;;;;;;5094357;28;20943;-74
2022/05/15 06:15:41;;;;;;;4.40;3.53;;;;;;;;;;5094342;28;20442;-74
2022/05/15 06:18:09;;;;;;;5.00;3.47;;;;;;;;;;5094148;28;20580;-74
2022/05/15 06:20:36;;;;;;;5.00;3.70;;;;;;;;;;5094270;28;20481;-74
2022/05/15 06:23:04;;;;;;;9.63;3.70;;;;;;;;;;5094188;28;20450;-74
2022/05/15 06:25:31;;;;;;;6.07;3.70;;;;;;;;;;5094224;28;20474;-74
2022/05/15 06:28:00;;;;;;;4.90;3.87;;;;;;;;;;5093827;28;20454;-74
2022/05/15 06:30:27;;;;;;;4.20;3.80;;;;;;;;;;5093986;28;20458;-74
2022/05/15 06:32:54;;;;;;;5.73;3.67;;;;;;;;;;5093908;28;20450;-74
2022/05/15 06:35:21;;;;;;;4.83;3.70;;;;;;;;;;5093671;28;20446;-74
2022/05/15 06:37:48;;;;;;;4.00;3.60;;;;;;;;;;5093686;28;20485;-74
2022/05/15 06:40:17;;;;;;;4.80;4.30;;;;;;;;;;5093779;28;20560;-74
2022/05/15 06:42:45;;;;;;;6.23;3.50;;;;;;;;;;5093583;28;20561;-74
2022/05/15 06:45:14;;;;;;;4.53;4.17;;;;;;;;;;5093787;28;20824;-74
2022/05/15 06:47:42;;;;;;;4.10;3.47;;;;;;;;;;5093531;28;20457;-74
2022/05/15 06:50:09;;;;;;;5.60;4.03;;;;;;;;;;5093713;28;20524;-74
2022/05/15 06:52:37;;;;;;;4.40;3.10;;;;;;;;;;5093718;28;20446;-74
2022/05/15 06:55:04;;;;;;;4.90;3.90;;;;;;;;;;5093326;28;20442;-74
2022/05/15 06:57:32;;;;;;;5.23;3.83;;;;;;;;;;5093661;28;20458;-74
2022/05/15 07:00:00;;;;;;;5.40;4.20;;;;;;;;;;5093232;28;20466;-74
2022/05/15 07:02:29;;;;;;;5.70;4.10;;;;;;;;;;5093321;28;20489;-74
2022/05/15 07:04:57;;;;;;;4.87;3.20;;;;;;;;;;5093479;28;20531;-74
2022/05/15 07:07:24;;;;;;;4.37;3.50;;;;;;;;;;5093170;28;20454;-74
2022/05/15 07:09:51;;;;;;;9.50;4.33;;;;;;;;;;5093385;28;20481;-74
2022/05/15 07:12:18;;;;;;;5.20;3.43;;;;;;;;;;5093481;28;20458;-74
2022/05/15 07:14:46;;;;;;;6.67;3.20;;;;;;;;;;5093645;28;20839;-74
2022/05/15 07:17:13;;;;;;;5.07;3.20;;;;;;;;;;5093477;28;20453;-76
2022/05/15 07:19:41;;;;;;;4.30;3.60;;;;;;;;;;5093048;28;20474;-76
2022/05/15 07:22:09;;;;;;;3.73;2.83;;;;;;;;;;5093300;28;20454;-74
2022/05/15 07:24:36;;;;;;;5.10;3.20;;;;;;;;;;5092960;28;20457;-74
2022/05/15 07:27:03;;;;;;;4.10;3.50;;;;;;;;;;5092993;28;20446;-74
2022/05/15 07:29:30;;;;;;;6.13;3.70;;;;;;;;;;5093433;28;20969;-74
2022/05/15 07:31:57;;;;;;;5.80;3.53;;;;;;;;;;5093314;28;20822;-74
2022/05/15 07:34:25;;;;;;;2.97;2.67;;;;;;;;;;5093247;28;20929;-74
2022/05/15 07:36:53;;;;;;;3.50;3.20;;;;;;;;;;5093500;28;20454;-74
2022/05/15 07:39:21;;;;;;;6.00;3.20;;;;;;;;;;5093170;28;20473;-74
2022/05/15 07:41:48;;;;;;;8.03;4.10;;;;;;;;;;5093221;28;20446;-74
2022/05/15 07:44:15;;;;;;;4.17;3.50;;;;;;;;;;5093204;28;20824;-74
2022/05/15 07:46:42;;;;;;;9.83;4.83;;;;;;;;;;5092779;28;20486;-74
2022/05/15 07:49:10;;;;;;;7.43;4.03;;;;;;;;;;5093013;28;20944;-74
2022/05/15 07:51:41;;;;;;;10.57;3.60;;;;;;;;;;5092820;28;20454;-74
2022/05/15 07:54:09;;;;;;;5.53;3.73;;;;;;;;;;5093156;28;20461;-74
2022/05/15 07:56:36;;;;;;;4.60;3.27;;;;;;;;;;5093152;28;20450;-75
2022/05/15 07:59:04;;;;;;;5.87;3.97;;;;;;;;;;5092985;28;20454;-74
2022/05/15 08:01:31;;;;;;;6.70;3.70;;;;;;;;;;5092727;28;20443;-74
2022/05/15 08:03:58;;;;;;;5.87;3.17;;;;;;;;;;5092821;28;20451;-74
2022/05/15 08:09:11;;;;;;;9.10;4.70;;;;;;;;;;5096623;28;20965;-74
2022/05/15 08:11:38;;;;;;;4.53;3.70;;;;;;;;;;5096824;28;20450;-74
2022/05/15 08:14:07;;;;;;;3.80;2.70;;;;;;;;;;5096746;28;20936;-74
2022/05/15 08:16:36;;;;;;;5.70;3.67;;;;;;;;;;5096720;28;20447;-74
2022/05/15 08:24:35;;;;;;;8.13;4.37;;;;;;;;;;5096291;28;20441;-74
2022/05/15 08:27:02;;;;;;;5.80;3.20;;;;;;;;;;5096501;28;20902;-73
2022/05/15 08:29:29;;;;;;;6.17;3.80;;;;;;;;;;5096783;28;20846;-75
2022/05/15 08:31:56;;;;;;;6.60;3.70;;;;;;;;;;5096372;28;20946;-74
2022/05/15 08:34:24;;;;;;;10.77;3.87;;;;;;;;;;5096687;28;20833;-73
2022/05/15 08:36:51;;;;;;;5.03;3.17;;;;;;;;;;5096001;28;20458;-73
2022/05/15 08:39:18;;;;;;;5.20;3.17;;;;;;;;;;5096012;28;20478;-74
2022/05/15 08:41:48;;;;;;;4.13;3.03;;;;;;;;;;5096341;28;20549;-73
2022/05/15 08:44:18;;;;;;;4.07;2.90;;;;;;;;;;5096021;28;20482;-73
2022/05/15 08:47:02;;;;;;;3.80;3.10;;;;;;;;;;5096188;28;20547;-76
2022/05/15 08:49:32;;;;;;;7.47;3.00;;;;;;;;;;5096086;28;20470;-76
2022/05/15 08:52:02;;;;;;;4.40;3.30;;;;;;;;;;5096423;28;20896;-76
2022/05/15 08:54:30;;;;;;;3.30;3.00;;;;;;;;;;5096122;28;20457;-73
2022/05/15 08:57:00;;;;;;;3.73;3.33;;;;;;;;;;5095795;28;20446;-74
2022/05/15 08:59:28;;;;;;;4.03;2.90;;;;;;;;;;5096168;28;20474;-75
2022/05/15 09:01:56;;;;;;;6.10;3.23;;;;;;;;;;5095463;28;20450;-73
2022/05/15 09:04:23;;;;;;;4.20;3.50;;;;;;;;;;5095614;28;20458;-75
2022/05/15 09:07:01;;;;;;;5.30;3.07;;;;;;;;;;5095593;28;20482;-74
2022/05/15 09:09:32;;;;;;;8.50;2.93;;;;;;;;;;5095677;28;20527;-73
2022/05/15 09:12:04;;;;;;;3.23;2.90;;;;;;;;;;5095364;28;20457;-73
2022/05/15 09:14:42;;;;;;;3.83;3.43;;;;;;;;;;5095687;28;20427;-73
2022/05/15 09:17:16;;;;;;;3.77;3.00;;;;;;;;;;5095542;28;20430;-73
2022/05/15 09:19:43;;;;;;;5.87;3.10;;;;;;;;;;5095412;28;20474;-73
2022/05/15 09:22:12;;;;;;;4.40;3.50;;;;;;;;;;5095563;28;20454;-73
2022/05/15 09:24:42;;;;;;;5.77;3.20;;;;;;;;;;5095719;28;20807;-75
2022/05/15 09:27:16;;;;;;;10.30;3.20;;;;;;;;;;5095940;28;20486;-74
2022/05/15 09:29:43;;;;;;;3.43;3.13;;;;;;;;;;5096399;28;20501;-74
2022/05/15 09:32:16;;;;;;;2.77;2.30;;;;;;;;;;5095039;28;20466;-73
2022/05/15 09:34:44;;;;;;;5.30;2.60;;;;;;;;;;5095389;28;20438;-74
2022/05/15 09:40:04;;;;;;;4.60;2.87;;;;;;;;;;5095183;28;20530;-74
2022/05/15 09:45:22;;;;;;;3.27;2.97;;;;;;;;;;5068990;28;20435;-75
2022/05/15 09:48:02;;;;;;;3.20;2.77;;;;;;;;;;5095212;28;20818;-75
2022/05/15 09:50:40;;;;;;;6.67;3.20;;;;;;;;;;5095156;28;20481;-75
2022/05/15 09:53:07;;;;;;;5.53;3.10;;;;;;;;;;5094896;28;20431;-75
2022/05/15 09:55:34;;;;;;;5.10;2.87;;;;;;;;;;5094938;28;20482;-75
2022/05/15 09:58:05;;;;;;;3.67;2.80;;;;;;;;;;5094777;28;20459;-75
2022/05/15 10:00:34;;;;;;;7.83;3.43;;;;;;;;;;5094443;28;20478;-75
2022/05/15 10:03:03;;;;;;;4.43;3.43;;;;;;;;;;5094417;28;20454;-75
2022/05/15 10:05:32;;;;;;;5.90;3.10;;;;;;;;;;5094534;28;20478;-75
2022/05/15 10:08:01;;;;;;;5.50;2.97;;;;;;;;;;5094839;28;20788;-75
2022/05/15 10:10:31;;;;;;;5.07;2.90;;;;;;;;;;5094228;28;20467;-75
2022/05/15 10:13:01;;;;;;;9.57;3.17;;;;;;;;;;5094518;28;20757;-75
2022/05/15 10:15:33;;;;;;;3.20;2.80;;;;;;;;;;5094201;28;20487;-75
2022/05/15 10:18:03;;;;;;;5.07;2.70;;;;;;;;;;5094402;28;20427;-75
2022/05/15 10:20:31;;;;;;;11.57;3.47;;;;;;;;;;5093988;28;20474;-75
2022/05/15 10:23:00;;;;;;;2.90;2.60;;;;;;;;;;5093860;28;20463;-75
2022/05/15 10:25:31;;;;;;;4.70;2.63;;;;;;;;;;5094143;28;20470;-75
2022/05/15 10:28:03;;;;;;;3.63;2.60;;;;;;;;;;5094282;28;20431;-75
2022/05/15 10:30:33;;;;;;;7.60;2.83;;;;;;;;;;5093467;28;20478;-75
2022/05/15 10:33:03;;;;;;;4.17;2.77;;;;;;;;;;5094155;28;20851;-75
2022/05/15 10:35:33;;;;;;;3.70;2.50;;;;;;;;;;5094060;28;20898;-75
2022/05/15 10:38:07;;;;;;;4.50;2.67;;;;;;;;;;5094070;28;20461;-75
2022/05/15 10:40:42;;;;;;;3.63;2.57;;;;;;;;;;5094033;28;20486;-75
2022/05/15 10:43:17;;;;;;;2.87;2.00;;;;;;;;;;5094014;28;20453;-75
2022/05/15 10:45:50;;;;;;;4.17;2.30;;;;;;;;;;5093623;28;20466;-75
2022/05/15 10:48:38;;;;;;;5.83;2.57;;;;;;;;;;5093972;28;20526;-75
2022/05/15 10:51:08;;;;;;;3.00;2.23;;;;;;;;;;5089271;28;20471;-75
2022/05/15 10:59:22;;;;;;;3.37;2.30;;;;;;;;;;5093810;28;20443;-75
2022/05/15 11:01:53;;;;;;;2.87;2.00;;;;;;;;;;5093408;28;20454;-75
2022/05/15 11:04:25;;;;;;;4.03;2.67;;;;;;;;;;5093571;28;20433;-75
2022/05/15 11:06:58;;;;;;;2.97;2.50;;;;;;;;;;5093852;28;20498;-75
2022/05/15 11:09:30;;;;;;;4.73;2.10;;;;;;;;;;5093700;28;20963;-75
2022/05/15 11:12:04;;;;;;;5.40;2.30;;;;;;;;;;5093722;28;20923;-75
2022/05/15 11:14:33;;;;;;;4.70;2.40;;;;;;;;;;5093928;28;20461;-75
2022/05/15 11:17:07;;;;;;;2.67;2.10;;;;;;;;;;5093658;28;20446;-76
2022/05/15 11:19:36;;;;;;;2.97;2.10;;;;;;;;;;5093488;28;20471;-75
2022/05/15 11:22:07;;;;;;;3.03;2.43;;;;;;;;;;5093227;28;20442;-75
2022/05/15 11:24:38;;;;;;;3.80;2.20;;;;;;;;;;5093172;28;20470;-76
2022/05/15 11:27:08;;;;;;;3.93;1.90;;;;;;;;;;5093489;28;20470;-75
2022/05/15 11:29:37;;;;;;;5.73;2.00;;;;;;;;;;5093164;28;20481;-75
2022/05/15 11:32:26;;;;;;;3.40;2.20;;;;;;;;;;5093465;28;20455;-75
2022/05/15 11:35:05;;;;;;;4.87;2.87;;;;;;;;;;5093146;28;20431;-75
2022/05/15 11:37:45;;;;;;;3.00;1.90;;;;;;;;;;5093413;28;20430;-75
2022/05/15 11:40:14;;;;;;;2.97;2.23;;;;;;;;;;5094576;28;20496;-75
2022/05/15 11:42:41;;;;;;;4.43;2.70;;;;;;;;;;5097525;28;20828;-75
2022/05/15 11:45:28;;;;;;;2.30;1.80;;;;;;;;;;5097524;28;20450;-75
2022/05/15 11:48:01;;;;;;;3.90;2.10;;;;;;;;;;5097030;28;20482;-75
2022/05/15 11:50:32;;;;;;;7.60;2.77;;;;;;;;;;5097474;28;20971;-76
2022/05/15 11:53:05;;;;;;;3.67;2.33;;;;;;;;;;5097116;28;20450;-75
2022/05/15 11:55:43;;;;;;;2.97;2.43;;;;;;;;;;5097509;28;20460;-76
2022/05/15 11:58:26;;;;;;;3.93;2.90;;;;;;;;;;5097064;28;20935;-76
2022/05/15 12:01:01;;;;;;;3.70;2.57;;;;;;;;;;5097242;28;20474;-77
2022/05/15 12:03:31;;;;;;;3.47;1.93;;;;;;;;;;5097392;28;20939;-76
2022/05/15 12:06:03;;;;;;;5.97;2.73;;;;;;;;;;5096838;28;20442;-76
2022/05/15 12:08:32;;;;;;;4.63;2.93;;;;;;;;;;5097235;28;20449;-75
2022/05/15 12:11:00;;;;;;;3.27;2.17;;;;;;;;;;5096915;28;20542;-76
2022/05/15 12:13:32;;;;;;;3.70;2.10;;;;;;;;;;5097464;28;20449;-77
2022/05/15 12:16:14;;;;;;;4.23;2.50;;;;;;;;;;5096867;28;20438;-77
2022/05/15 12:18:44;;;;;;;3.40;2.33;;;;;;;;;;5097308;28;20912;-77
2022/05/15 12:21:15;;;;;;;3.67;2.50;;;;;;;;;;5096905;28;20483;-77
2022/05/15 12:24:27;;;;;;;3.30;2.47;;;;;;;;;;5096878;28;20458;-76
2022/05/15 12:26:37;;;;;;;3.40;2.27;;;;;;;;;;5096269;28;20482;-76
2022/05/15 12:29:08;;;;;;;3.20;2.33;;;;;;;;;;5096589;28;20934;-76
2022/05/15 12:31:39;;;;;;;2.53;2.20;;;;;;;;;;5096625;28;20442;-76
2022/05/15 12:34:12;;;;;;;4.43;2.40;;;;;;;;;;5096884;28;20461;-76
2022/05/15 12:36:42;;;;;;;2.73;2.20;;;;;;;;;;5096186;28;20435;-76
2022/05/15 12:39:13;;;;;;;3.57;2.50;;;;;;;;;;5096637;28;20462;-76
2022/05/15 12:41:44;;;;;;;2.87;2.27;;;;;;;;;;5096487;28;20446;-76
2022/05/15 12:44:11;;;;;;;5.80;2.10;;;;;;;;;;5096421;28;20947;-76
2022/05/15 12:46:40;;;;;;;2.80;2.30;;;;;;;;;;5096397;28;20602;-76
2022/05/15 12:49:08;;;;;;;2.37;1.90;;;;;;;;;;5096215;28;20447;-76
2022/05/15 12:51:38;;;;;;;2.97;1.90;;;;;;;;;;5095753;28;20455;-76
2022/05/15 12:54:06;;;;;;;2.93;2.30;;;;;;;;;;5096155;28;20808;-78
2022/05/15 12:56:34;;;;;;;3.17;2.10;;;;;;;;;;5096074;28;20451;-76
2022/05/15 12:59:02;;;;;;;5.37;2.03;;;;;;;;;;5096056;28;20439;-76
2022/05/15 13:01:31;;;;;;;5.50;2.40;;;;;;;;;;5096016;28;20920;-75
2022/05/15 13:03:59;;;;;;;7.63;2.80;;;;;;;;;;5096058;28;20792;-76
2022/05/15 13:06:31;;;;;;;4.20;2.73;;;;;;;;;;5095942;28;20482;-76
2022/05/15 13:09:01;;;;;;;3.10;2.13;;;;;;;;;;5095856;28;20924;-77
2022/05/15 13:11:30;;;;;;;4.07;2.13;;;;;;;;;;5095838;28;20493;-77
2022/05/15 13:13:59;;;;;;;5.30;2.57;;;;;;;;;;5095596;28;20451;-76
2022/05/15 13:16:28;;;;;;;3.43;2.70;;;;;;;;;;5095595;28;20450;-76
2022/05/15 13:18:55;;;;;;;2.50;2.10;;;;;;;;;;5095343;28;20527;-76
2022/05/15 13:21:33;;;;;;;5.60;2.80;;;;;;;;;;5095762;28;20486;-75
2022/05/15 13:24:01;;;;;;;4.33;1.90;;;;;;;;;;5095561;28;20469;-76
2022/05/15 13:26:32;;;;;;;7.50;2.63;;;;;;;;;;5095218;28;20450;-76
2022/05/15 13:29:01;;;;;;;2.40;2.00;;;;;;;;;;5095553;28;20439;-75
2022/05/15 13:31:29;;;;;;;3.93;3.00;;;;;;;;;;5095505;28;20485;-76
2022/05/15 13:33:57;;;;;;;3.87;2.37;;;;;;;;;;5095167;28;20439;-76
2022/05/15 13:36:24;;;;;;;3.80;2.80;;;;;;;;;;5095337;28;20443;-75
2022/05/15 13:44:28;;;;;;;4.33;2.03;;;;;;;;;;5094882;28;20407;-75
2022/05/15 13:47:02;;;;;;;3.70;2.37;;;;;;;;;;5095014;28;20497;-75
2022/05/15 13:49:37;;;;;;;6.03;2.07;;;;;;;;;;5094972;28;20466;-75
2022/05/15 13:52:19;;;;;;;8.47;2.37;;;;;;;;;;5095055;28;20803;-75
2022/05/15 13:54:47;;;;;;;3.10;2.23;;;;;;;;;;5094566;28;20431;-75
2022/05/15 13:57:15;;;;;;;3.73;2.30;;;;;;;;;;5094577;28;20500;-75
2022/05/15 13:59:43;;;;;;;2.40;2.20;;;;;;;;;;5095058;28;20470;-75
2022/05/15 14:02:12;;;;;;;2.10;1.90;;;;;;;;;;5094526;28;20447;-75
2022/05/15 14:04:41;;;;;;;3.33;2.40;;;;;;;;;;5093701;28;21000;-75
2022/05/15 14:07:08;;;;;;;3.73;2.70;;;;;;;;;;5094491;28;20486;-74
2022/05/15 14:09:46;;;;;;;6.00;2.30;;;;;;;;;;5094330;28;20478;-75
2022/05/15 14:12:15;;;;;;;2.20;1.90;;;;;;;;;;5094601;28;20446;-75
2022/05/15 14:14:45;;;;;;;6.07;2.40;;;;;;;;;;5094475;28;20446;-75
2022/05/15 14:17:13;;;;;;;3.07;2.60;;;;;;;;;;5094478;28;20443;-75
2022/05/15 14:19:55;;;;;;;2.53;2.30;;;;;;;;;;5094404;28;20470;-75
2022/05/15 14:22:22;;;;;;;2.80;2.33;;;;;;;;;;5094054;28;20434;-75
2022/05/15 14:24:57;;;;;;;2.07;1.87;;;;;;;;;;5111001;27;20591;-75
2022/05/15 14:27:24;;;;;;;3.90;2.27;;;;;;;;;;5111187;28;20449;-75
2022/05/15 14:29:52;;;;;;;2.90;2.23;;;;;;;;;;5111051;28;20836;-75
2022/05/15 14:32:20;;;;;;;5.07;2.30;;;;;;;;;;5110754;28;20438;-75
2022/05/15 14:34:47;;;;;;;3.13;2.47;;;;;;;;;;5111056;28;20928;-75
2022/05/15 14:37:15;;;;;;;3.50;2.30;;;;;;;;;;5110696;28;20450;-75
2022/05/15 14:39:42;;;;;;;3.10;2.43;;;;;;;;;;5110942;28;20472;-75
2022/05/15 14:42:11;;;;;;;3.00;2.30;;;;;;;;;;5110662;28;20438;-75
2022/05/15 14:44:38;;;;;;;5.17;2.70;;;;;;;;;;5110624;28;20536;-74
2022/05/15 14:47:07;;;;;;;3.23;2.90;;;;;;;;;;5110466;28;20450;-75
2022/05/15 14:49:35;;;;;;;2.97;2.43;;;;;;;;;;5110438;28;20469;-75
2022/05/15 14:52:02;;;;;;;2.57;2.20;;;;;;;;;;5110362;28;20445;-75
2022/05/15 14:54:31;;;;;;;3.97;2.30;;;;;;;;;;5110736;28;20454;-75
2022/05/15 14:56:59;;;;;;;2.80;2.17;;;;;;;;;;5110336;28;20442;-75
2022/05/15 14:59:29;;;;;;;3.50;2.40;;;;;;;;;;5110440;28;21000;-75
2022/05/15 15:01:56;;;;;;;9.73;2.57;;;;;;;;;;5110552;28;20446;-75
2022/05/15 15:04:23;;;;;;;3.93;1.90;;;;;;;;;;5110144;28;20485;-75
2022/05/15 15:06:50;;;;;;;6.33;2.70;;;;;;;;;;5110172;28;20503;-75
2022/05/15 15:09:19;;;;;;;4.53;2.40;;;;;;;;;;5110046;28;20466;-75
2022/05/15 15:11:47;;;;;;;4.10;2.90;;;;;;;;;;5110068;28;20460;-74
2022/05/15 15:14:15;;;;;;;3.60;2.13;;;;;;;;;;5110439;28;20793;-75
2022/05/15 15:16:45;;;;;;;12.10;2.30;;;;;;;;;;5109980;28;20445;-75
2022/05/15 15:19:13;;;;;;;3.00;2.37;;;;;;;;;;5110081;28;20953;-74
2022/05/15 15:21:40;;;;;;;3.33;2.20;;;;;;;;;;5110186;28;20450;-75